Old Town, Florida
Current Conditions -  °F | °C
As of 7:53 AM on Friday 28 Nov 2014 (Local Time) from KGNV Reporting Station
Clear Clear  
Wind Chill: 32°   Ceiling: Unl
Heat Index: 37°   Visibility: 10mi
Dew Point: 31°   Wind: 6mph
Humidity: 79%   Direction: 350°N
Pressure: 30.36"   Gusts: NA
Location:  29.6°N, 82.98°W
Report Text: KGNV 281253Z 35005KT 10SM CLR 03/M01 A3036 RMK AO2 SLP283 T00281006
Loading
Personal Weather Stations






























Interactive Weather Map New forecast layout! Learn more

10-Day Weather Forecast

Advertisements
Track Severe Weather on mobile